General Aviation Weather

Text Reports

Enter one or more of the following location identifiers separated by a space:

Zip Code, Four-Character ICAO or Three-Character IATA airport codes.

METAR - Aviation Routine Weather Report
KMIW - Marshalltown, Iowa
Updated at 4:53 AM GMT on May 23, 2015 (11:53 PM CDT):
METAR KMIW 230453Z AUTO 32004KT 10SM OVC110 16/09 A3022 RMK AO2 SLP229 T01560094
TAF - Terminal Area Forecast
KMIW - Marshalltown, Iowa
Updated at 4:53 AM GMT on May 23, 2015 (11:53 PM CDT):
No TAF is currently available for this location.
Decoded:
No decoded TAF is available.
PIREP - Pilot Weather Report
KMIW - Marshalltown, Iowa
Updated at 4:53 AM GMT on May 23, 2015 (11:53 PM CDT):
No PIREP is currently available for this location.
AIRMET - Airmens Meteorological Information
KMIW - Marshalltown, Iowa
Updated at 4:53 AM GMT on May 23, 2015 (11:53 PM CDT):
No AIRMET is currently available for this location.
SIGMET - Significant Meteorological Information
KMIW - Marshalltown, Iowa
Updated at 4:53 AM GMT on May 23, 2015 (11:53 PM CDT):
No SIGMET is currently available for this location.
NOTAM - Notice to Airmen
KMIW - Marshalltown, Iowa
Updated at 4:53 AM GMT on May 23, 2015 (11:53 PM CDT):
No NOTAM is currently available for this location.
Forecast Area
KMIW - Marshalltown, Iowa
Updated at 4:53 AM GMT on May 23, 2015 (11:53 PM CDT):
No NOTAM is currently available for this location.
Aviation Weather Maps